createdAt,value
2022-11-15T00:02:59.576Z,7.13
2022-11-15T00:08:20.326Z,0.80
2022-11-15T00:13:42.513Z,1.27
2022-11-15T00:19:03.727Z,0.20
2022-11-15T00:24:24.654Z,4.63
2022-11-15T00:29:48.043Z,0.10
2022-11-15T00:35:10.205Z,2.67
2022-11-15T00:40:31.770Z,0.95
2022-11-15T00:45:52.581Z,1.75
2022-11-15T00:51:14.487Z,2.17
2022-11-15T00:56:36.304Z,2.40
2022-11-15T01:01:57.036Z,1.45
2022-11-15T01:07:18.726Z,1.08
2022-11-15T01:12:40.675Z,0.30
2022-11-15T01:18:01.369Z,1.30
2022-11-15T01:23:22.125Z,0.15
2022-11-15T01:28:46.509Z,2.50
2022-11-15T01:34:10.206Z,3.53
2022-11-15T01:39:32.091Z,1.00
2022-11-15T01:44:55.976Z,0.05
2022-11-15T01:50:24.889Z,0.32
2022-11-15T01:55:47.744Z,0.10
2022-11-15T02:01:10.309Z,0.03
2022-11-15T02:06:31.986Z,0.55
2022-11-15T02:11:56.442Z,4.57
2022-11-15T02:17:37.144Z,0.00
2022-11-15T02:23:16.011Z,0.95
2022-11-15T02:29:11.599Z,0.38
2022-11-15T02:34:56.038Z,0.17
2022-11-15T02:40:51.293Z,0.10
2022-11-15T02:46:23.446Z,1.65
2022-11-15T02:51:48.503Z,4.28
2022-11-15T02:57:17.859Z,0.63
2022-11-15T03:03:03.725Z,4.30
2022-11-15T03:08:33.094Z,1.00
2022-11-15T03:14:11.338Z,0.10
2022-11-15T03:19:53.117Z,0.30
2022-11-15T03:25:21.024Z,0.00
2022-11-15T03:30:43.733Z,0.47
2022-11-15T03:36:05.255Z,0.43
2022-11-15T03:41:51.303Z,1.00
2022-11-15T03:47:37.478Z,0.00
2022-11-15T03:53:12.584Z,1.45
2022-11-15T03:58:34.549Z,3.20
2022-11-15T04:03:59.399Z,0.60
2022-11-15T04:09:28.556Z,0.13
2022-11-15T04:15:08.216Z,1.58
2022-11-15T04:20:49.981Z,1.05
2022-11-15T04:26:20.915Z,0.82
2022-11-15T04:31:45.422Z,0.20
2022-11-15T04:37:14.324Z,0.20
2022-11-15T04:42:42.032Z,0.77
2022-11-15T04:48:02.627Z,0.63
2022-11-15T04:53:23.223Z,0.10
2022-11-15T04:58:52.236Z,0.20
2022-11-15T05:04:22.836Z,0.30
2022-11-15T05:09:45.699Z,0.25
2022-11-15T05:15:12.505Z,0.00
2022-11-15T05:20:33.996Z,0.43
2022-11-15T05:25:54.697Z,1.63
2022-11-15T05:31:17.602Z,0.00
2022-11-15T05:36:41.995Z,1.42
2022-11-15T05:42:11.679Z,1.58
2022-11-15T05:53:03.621Z,2.78
2022-11-15T05:58:30.023Z,0.98
2022-11-15T06:03:50.988Z,0.52
2022-11-15T06:09:13.020Z,2.03
2022-11-15T06:14:33.732Z,0.73
2022-11-15T06:19:55.395Z,1.50
2022-11-15T06:25:16.540Z,2.85
2022-11-15T06:30:37.854Z,1.75
2022-11-15T06:36:35.789Z,5.60
2022-11-15T06:42:02.623Z,6.55
2022-11-15T06:47:31.311Z,4.07
2022-11-15T06:58:44.809Z,21.13
2022-11-15T07:04:06.253Z,9.98
2022-11-15T07:09:34.294Z,14.70
2022-11-15T07:15:00.352Z,8.10
2022-11-15T07:20:29.725Z,14.93
2022-11-15T07:25:52.003Z,10.98
2022-11-15T07:31:18.035Z,8.45
2022-11-15T08:06:51.173Z,12.23
2022-11-15T08:18:22.101Z,16.58
2022-11-15T08:35:32.938Z,14.75
2022-11-15T08:52:39.245Z,23.88
2022-11-15T08:58:11.600Z,11.57
2022-11-15T09:03:35.431Z,16.98
2022-11-15T09:08:56.933Z,25.63
2022-11-15T09:14:26.891Z,8.80
2022-11-15T09:31:46.786Z,5.25
2022-11-15T09:38:01.161Z,22.00
2022-11-15T09:49:09.950Z,26.73
2022-11-15T09:54:55.614Z,19.60
2022-11-15T10:00:46.008Z,23.98
2022-11-15T10:05:56.404Z,16.50
2022-11-15T10:17:09.780Z,13.48
2022-11-15T10:22:30.114Z,16.83
2022-11-15T10:27:32.375Z,17.85
2022-11-15T10:32:37.322Z,9.35
2022-11-15T10:37:41.085Z,15.55
2022-11-15T10:43:15.977Z,24.40
2022-11-15T10:48:19.243Z,19.88
2022-11-15T10:53:27.969Z,12.48
2022-11-15T11:03:41.125Z,10.75
2022-11-15T11:09:05.903Z,15.18
2022-11-15T11:14:24.417Z,14.65
2022-11-15T11:19:55.881Z,9.23
2022-11-15T11:25:04.014Z,7.00
2022-11-15T11:30:29.687Z,14.45
2022-11-15T11:35:54.790Z,8.02
2022-11-15T11:41:05.874Z,8.43
2022-11-15T11:46:10.844Z,4.00
2022-11-15T11:51:22.957Z,18.48
2022-11-15T11:56:36.040Z,7.22
2022-11-15T12:01:49.530Z,9.85
2022-11-15T12:07:38.065Z,3.72
2022-11-15T12:12:55.821Z,18.13
2022-11-15T12:18:04.529Z,1.88
2022-11-15T12:23:19.080Z,3.28
2022-11-15T12:28:48.577Z,3.42
2022-11-15T12:34:26.595Z,9.52
2022-11-15T12:40:14.482Z,5.13
2022-11-15T12:45:32.226Z,9.70
2022-11-15T12:51:00.375Z,8.75
2022-11-15T12:56:18.062Z,6.00
2022-11-15T13:02:00.043Z,5.72
2022-11-15T13:07:32.358Z,4.65
2022-11-15T13:12:38.570Z,8.85
2022-11-15T13:17:50.761Z,9.10
2022-11-15T13:23:12.624Z,7.97
2022-11-15T13:28:22.216Z,13.85
2022-11-15T13:39:30.290Z,12.40
2022-11-15T13:44:39.332Z,15.02
2022-11-15T13:49:56.994Z,8.20
2022-11-15T13:55:23.192Z,11.88
2022-11-15T14:00:48.294Z,5.78
2022-11-15T14:06:20.151Z,7.22
2022-11-15T14:11:22.829Z,3.00
2022-11-15T14:16:39.751Z,9.07
2022-11-15T14:22:18.348Z,4.30
2022-11-15T14:27:29.600Z,5.38
2022-11-15T14:32:52.875Z,10.75
2022-11-15T14:38:06.919Z,4.55
2022-11-15T14:43:13.817Z,6.38
2022-11-15T14:48:18.834Z,2.83
2022-11-15T14:53:30.735Z,10.88
2022-11-15T14:58:34.901Z,6.00
2022-11-15T15:09:33.223Z,10.48
2022-11-15T15:14:52.107Z,7.88
2022-11-15T15:20:06.248Z,6.80
2022-11-15T15:25:22.999Z,11.65
2022-11-15T15:31:28.506Z,5.10
2022-11-15T15:42:02.047Z,6.40
2022-11-15T15:47:16.502Z,7.63
2022-11-15T15:52:21.938Z,15.10
2022-11-15T15:57:54.050Z,5.00
2022-11-15T16:03:00.917Z,7.75
2022-11-15T16:08:06.813Z,13.02
2022-11-15T16:13:09.471Z,6.65
2022-11-15T16:18:20.008Z,5.50
2022-11-15T16:23:31.281Z,7.28
2022-11-15T16:28:43.913Z,7.05
2022-11-15T16:33:52.392Z,12.77
2022-11-15T16:39:05.896Z,9.25
2022-11-15T16:44:16.519Z,5.03
2022-11-15T16:49:25.633Z,12.52
2022-11-15T16:54:36.979Z,11.93
2022-11-15T16:59:47.056Z,18.58
2022-11-15T17:04:49.328Z,11.40
2022-11-15T17:09:54.427Z,5.15
2022-11-15T17:20:58.009Z,24.55
2022-11-15T17:31:58.821Z,18.65
2022-11-15T17:37:32.462Z,19.25
2022-11-15T17:42:36.063Z,8.00
2022-11-15T17:47:44.933Z,3.40
2022-11-15T17:53:04.047Z,7.55
2022-11-15T17:58:06.572Z,6.28
2022-11-15T18:03:09.351Z,7.15
2022-11-15T18:08:19.214Z,9.48
2022-11-15T18:13:26.423Z,12.55
2022-11-15T18:18:34.547Z,7.25
2022-11-15T18:23:37.716Z,8.13
2022-11-15T18:28:49.974Z,9.50
2022-11-15T18:33:56.166Z,11.32
2022-11-15T18:39:04.856Z,9.50
2022-11-15T18:44:08.691Z,19.30
2022-11-15T18:49:16.882Z,15.60
2022-11-15T18:54:30.580Z,8.02
2022-11-15T18:59:35.759Z,9.90
2022-11-15T19:04:41.963Z,9.80
2022-11-15T19:09:54.091Z,12.55
2022-11-15T19:14:57.389Z,10.15
2022-11-15T19:20:00.447Z,9.65
2022-11-15T19:25:05.755Z,14.40
2022-11-15T19:30:10.407Z,9.60
2022-11-15T19:35:14.035Z,6.82
2022-11-15T19:40:17.440Z,6.22
2022-11-15T19:45:25.706Z,3.53
2022-11-15T19:50:31.448Z,4.57
2022-11-15T19:55:56.806Z,5.18
2022-11-15T20:01:06.565Z,5.32
2022-11-15T20:06:18.108Z,7.30
2022-11-15T20:11:23.587Z,7.20
2022-11-15T20:16:27.378Z,3.58
2022-11-15T20:21:29.810Z,7.50
2022-11-15T20:26:38.949Z,7.43
2022-11-15T20:31:43.001Z,12.30
2022-11-15T20:36:46.177Z,18.35
2022-11-15T20:41:49.804Z,38.97
2022-11-15T20:46:52.073Z,39.95
2022-11-15T20:51:55.459Z,26.52
2022-11-15T20:56:59.971Z,19.63
2022-11-15T21:02:03.888Z,27.88
2022-11-15T21:07:06.630Z,21.15
2022-11-15T21:12:14.521Z,19.15
2022-11-15T21:17:17.015Z,20.35
2022-11-15T21:22:20.805Z,17.38
2022-11-15T21:27:26.162Z,10.38
2022-11-15T21:32:30.176Z,20.92
2022-11-15T21:37:36.705Z,21.00
2022-11-15T21:42:38.886Z,20.63
2022-11-15T21:47:45.802Z,19.08
2022-11-15T21:52:48.691Z,7.10
2022-11-15T21:57:51.311Z,6.75
2022-11-15T22:02:53.504Z,14.02
2022-11-15T22:07:55.851Z,8.27
2022-11-15T22:12:58.016Z,8.88
2022-11-15T22:18:00.369Z,6.15
2022-11-15T22:23:03.286Z,6.32
2022-11-15T22:28:08.442Z,10.27
2022-11-15T22:33:11.717Z,6.57
2022-11-15T22:38:15.201Z,4.45
2022-11-15T22:43:19.874Z,5.80
2022-11-15T22:48:27.567Z,7.63
2022-11-15T22:53:30.360Z,5.47
2022-11-15T22:58:35.009Z,5.50
2022-11-15T23:03:37.604Z,3.70
2022-11-15T23:08:40.105Z,7.28
2022-11-15T23:13:43.231Z,5.05
2022-11-15T23:18:45.726Z,4.38
2022-11-15T23:23:47.904Z,10.85
2022-11-15T23:28:50.125Z,5.43
2022-11-15T23:33:58.682Z,8.75
2022-11-15T23:39:03.223Z,11.07
2022-11-15T23:44:05.922Z,9.43
2022-11-15T23:49:08.331Z,6.63
2022-11-15T23:54:11.522Z,13.10
2022-11-15T23:59:14.829Z,4.70
